Terminal Aerodrome Forecast
Issued by NWS

Home | Current Version | Previous Version | Graphics & Text | Print | Product List | Glossary On
Versions: 1 2 3 4 5 6 7 8 9 10 11 12 13 14 15 16 17 18 19 20 21
000
FTUS43 KMPX 241800 AAA
TAFAXN
TAF AMD
KAXN 241838Z 2419/2518 15013G21KT P6SM -SHRA SCT050 BKN080
      TEMPO 2419/2420 5SM TSRA BKN050CB
     FM242000 15011G18KT P6SM VCSH SCT050 BKN090
     FM242200 15010KT P6SM SCT050 BKN120
     FM250500 14010KT P6SM BKN060
     FM251300 15007KT P6SM SCT020 BKN040=

USA.gov is the U.S. government's official web portal to all federal, state and local government web resources and services.